Monroe, North Carolina
Current Conditions -  °F | °C
As of 11:22 AM on Sunday 23 Nov 2014 (Local Time) from KEQY Reporting Station
Light Rain Light Rain  
Wind Chill: 44°   Ceiling: 400
Heat Index: 47°   Visibility: 2.5mi
Dew Point: 45°   Wind: 7mph
Humidity: 93%   Direction: 50°NE
Pressure: 30.12"   Gusts: NA
Location:  34.98°N, 80.55°W
Report Text: KEQY 231622Z AUTO 05006KT 2 1/2SM -RA BR OVC004 08/07 A3012 RMK AO2 P0003 T00830072
Loading
Personal Weather Stations






























Interactive Weather Map New forecast layout! Learn more

10-Day Weather Forecast

Advertisements
Track Severe Weather on mobile